Archival Weather

Aeroparque Jorge Newbery

Aeroparque Jorge Newbery, Argentina (SABE)

Report from: Saturday, May 14, 2022 1:00 PM -03
Current time: Sunday, June 26, 2022 2:16 PM -03

Current weather
Weather history
Weather forecast

Temperature19.0°C (66.2°F)
Dew point9.0°C (48.2°F)
Winds 4 kts (2.1 m/s, 4.6 mph) Vrb
Winds variableWinds variable
Visibility6.2 mi. (10 km)
Clouds Few clouds 2,500 ft. (762 m)
Altimeter30.06 in.Hg (1018 mB)
Relative humidity52 %
Density altitude474 ft. (144 m)
Remarks Corrected report
No significant changes expected in the next two hours
Flight conditions Visual Meteorological Conditions
Raw dataCOR SABE 141600Z VRB04KT 9999 FEW025 19/09 Q1018 NOSIG
An error has occurred. This application may no longer respond until reloaded. Reload 🗙